Time;durP1;ratioP1;P1;durP2;ratioP2;P2;SDS_P1;SDS_P2;PMS_P1;PMS_P2;Temp;Humidity;BMP_temperature;BMP_pressure;BME280_temperature;BME280_humidity;BME280_pressure;Samples;Min_cycle;Max_cycle;Signal;HPM_P1;HPM_P2
2022/11/23 00:01:28;;;;;;;;;;;1.10;99.90;;;;;;5074840;28;19954;-67
2022/11/23 00:03:55;;;;;;;;;;;1.10;99.90;;;;;;5079447;28;20470;-66
2022/11/23 00:06:21;;;;;;;;;;;1.20;99.90;;;;;;5082288;28;20053;-67
2022/11/23 00:08:47;;;;;;;;;;;1.20;99.90;;;;;;5109023;22;19920;-57
2022/11/23 00:11:13;;;;;;;;;;;1.20;99.90;;;;;;5089600;28;19938;-61
2022/11/23 00:13:39;;;;;;;;;;;1.20;99.90;;;;;;5092313;28;19904;-60
2022/11/23 00:16:06;;;;;;;;;;;1.20;99.90;;;;;;5092361;28;20190;-60
2022/11/23 00:18:31;;;;;;;;;;;1.20;99.90;;;;;;5092233;28;20180;-61
2022/11/23 00:20:56;;;;;;;;;;;1.20;99.90;;;;;;5092510;28;19904;-56
2022/11/23 00:23:22;;;;;;;;;;;1.30;99.90;;;;;;5092114;28;19965;-58
2022/11/23 00:25:47;;;;;;;;;;;1.30;99.90;;;;;;5092695;28;20272;-59
2022/11/23 00:28:13;;;;;;;;;;;1.30;99.90;;;;;;5092265;28;19904;-59
2022/11/23 00:30:38;;;;;;;;;;;1.30;99.90;;;;;;5092382;28;20511;-61
2022/11/23 00:33:04;;;;;;;;;;;1.20;99.90;;;;;;5092106;28;19904;-60
2022/11/23 00:35:29;;;;;;;;;;;1.30;99.90;;;;;;5071170;28;19919;-60
2022/11/23 00:37:55;;;;;;;;;;;1.30;99.90;;;;;;5092072;28;20002;-62
2022/11/23 00:40:20;;;;;;;;;;;1.30;99.90;;;;;;5092252;28;19904;-61
2022/11/23 00:42:46;;;;;;;;;;;1.30;99.90;;;;;;5092078;28;19915;-62
2022/11/23 00:45:11;;;;;;;;;;;1.30;99.90;;;;;;5092200;28;19915;-61
2022/11/23 00:47:37;;;;;;;;;;;1.30;99.90;;;;;;5092614;28;19908;-60
2022/11/23 00:50:02;;;;;;;;;;;1.30;99.90;;;;;;5092182;28;20026;-61
2022/11/23 00:52:28;;;;;;;;;;;1.30;99.90;;;;;;5091797;28;19908;-61
2022/11/23 00:54:53;;;;;;;;;;;1.30;99.90;;;;;;5091661;28;20062;-60
2022/11/23 00:57:19;;;;;;;;;;;1.30;99.90;;;;;;5091768;28;19908;-62
2022/11/23 00:59:44;;;;;;;;;;;1.30;99.90;;;;;;5091319;28;20426;-60
2022/11/23 01:02:10;;;;;;;;;;;1.40;99.90;;;;;;5091655;28;19939;-60
2022/11/23 01:04:37;;;;;;;;;;;1.40;99.90;;;;;;5091557;28;20334;-61
2022/11/23 01:07:02;;;;;;;;;;;1.40;99.90;;;;;;5091318;28;20007;-61
2022/11/23 01:09:28;;;;;;;;;;;1.40;99.90;;;;;;5091134;28;20457;-60
2022/11/23 01:11:53;;;;;;;;;;;1.40;99.90;;;;;;5091131;28;19908;-62
2022/11/23 01:14:20;;;;;;;;;;;1.40;99.90;;;;;;5091484;28;19920;-62
2022/11/23 01:16:45;;;;;;;;;;;1.40;99.90;;;;;;5091202;28;19937;-57
2022/11/23 01:19:12;;;;;;;;;;;1.40;99.90;;;;;;5091156;28;19911;-60
2022/11/23 01:21:37;;;;;;;;;;;1.40;99.90;;;;;;5090967;28;19915;-60
2022/11/23 01:24:07;;;;;;;;;;;1.40;99.90;;;;;;5091493;28;19919;-61
2022/11/23 01:26:33;;;;;;;;;;;1.50;99.90;;;;;;5088971;28;19916;-61
2022/11/23 01:28:58;;;;;;;;;;;1.50;99.90;;;;;;5091019;28;20575;-60
2022/11/23 01:31:25;;;;;;;;;;;1.50;99.90;;;;;;5085953;28;19940;-60
2022/11/23 01:33:54;;;;;;;;;;;1.50;99.90;;;;;;5091726;28;19939;-61
2022/11/23 01:36:21;;;;;;;;;;;1.50;99.90;;;;;;5091070;28;19958;-60
2022/11/23 01:38:47;;;;;;;;;;;1.60;99.90;;;;;;5090812;28;20417;-61
2022/11/23 01:41:13;;;;;;;;;;;1.60;99.90;;;;;;5090745;28;19928;-60
2022/11/23 01:43:39;;;;;;;;;;;1.60;99.90;;;;;;5090936;28;19908;-60
2022/11/23 01:46:04;;;;;;;;;;;1.60;99.90;;;;;;5091002;28;20017;-59
2022/11/23 01:48:36;;;;;;;;;;;1.60;99.90;;;;;;5090922;28;19911;-61
2022/11/23 01:51:04;;;;;;;;;;;1.60;99.90;;;;;;5066345;28;19978;-60
2022/11/23 01:53:30;;;;;;;;;;;1.60;99.90;;;;;;5090570;28;20422;-61
2022/11/23 01:55:58;;;;;;;;;;;1.60;99.90;;;;;;5090153;28;19923;-61
2022/11/23 01:58:24;;;;;;;;;;;1.60;99.90;;;;;;5088806;28;19919;-59
2022/11/23 02:00:49;;;;;;;;;;;1.60;99.90;;;;;;5088267;28;19986;-60
2022/11/23 02:03:15;;;;;;;;;;;1.60;99.90;;;;;;5088702;28;19919;-59
2022/11/23 02:05:43;;;;;;;;;;;1.70;99.90;;;;;;5073122;28;20368;-58
2022/11/23 02:08:09;;;;;;;;;;;1.70;99.90;;;;;;5089988;28;19908;-59
2022/11/23 02:10:35;;;;;;;;;;;1.70;99.90;;;;;;5089800;28;19916;-58
2022/11/23 02:13:05;;;;;;;;;;;1.70;99.90;;;;;;5090437;28;19911;-59
2022/11/23 02:15:32;;;;;;;;;;;1.70;99.90;;;;;;5090467;28;19908;-60
2022/11/23 02:17:59;;;;;;;;;;;1.70;99.90;;;;;;5090023;28;19914;-60
2022/11/23 02:20:24;;;;;;;;;;;1.70;99.90;;;;;;5090919;28;20402;-60
2022/11/23 02:22:50;;;;;;;;;;;1.70;99.90;;;;;;5089592;28;19908;-61
2022/11/23 02:25:21;;;;;;;;;;;1.70;99.90;;;;;;5090222;28;20375;-61
2022/11/23 02:27:46;;;;;;;;;;;1.70;99.90;;;;;;5089750;28;19926;-62
2022/11/23 02:30:12;;;;;;;;;;;1.70;99.90;;;;;;5089736;28;19908;-60
2022/11/23 02:32:37;;;;;;;;;;;1.70;99.90;;;;;;5089184;28;19919;-60
2022/11/23 02:35:03;;;;;;;;;;;1.80;99.90;;;;;;5088623;28;19910;-61
2022/11/23 02:37:28;;;;;;;;;;;1.80;99.90;;;;;;5090101;28;20404;-60
2022/11/23 02:39:55;;;;;;;;;;;1.80;99.90;;;;;;5090170;28;19995;-62
2022/11/23 02:42:21;;;;;;;;;;;1.80;99.90;;;;;;5066488;28;19911;-61
2022/11/23 02:44:50;;;;;;;;;;;1.80;99.90;;;;;;5086356;28;20241;-61
2022/11/23 02:47:15;;;;;;;;;;;1.80;99.90;;;;;;5082036;28;19912;-61
2022/11/23 02:49:41;;;;;;;;;;;1.80;99.90;;;;;;5089935;28;19911;-59
2022/11/23 02:52:07;;;;;;;;;;;1.80;99.90;;;;;;5087737;28;20272;-61
2022/11/23 02:54:33;;;;;;;;;;;1.80;99.90;;;;;;5089639;28;19916;-62
2022/11/23 02:56:58;;;;;;;;;;;1.90;99.90;;;;;;5089904;28;19915;-63
2022/11/23 02:59:23;;;;;;;;;;;1.90;99.90;;;;;;5089432;28;20444;-61
2022/11/23 03:01:50;;;;;;;;;;;1.90;99.90;;;;;;5089851;28;20022;-61
2022/11/23 03:04:16;;;;;;;;;;;1.90;99.90;;;;;;5089835;28;20038;-61
2022/11/23 03:06:41;;;;;;;;;;;1.90;99.90;;;;;;5089436;28;19908;-63
2022/11/23 03:09:07;;;;;;;;;;;1.90;99.90;;;;;;5089050;28;19921;-61
2022/11/23 03:11:32;;;;;;;;;;;1.90;99.90;;;;;;5089458;28;19919;-61
2022/11/23 03:13:58;;;;;;;;;;;1.90;99.90;;;;;;5089443;28;20430;-60
2022/11/23 03:16:23;;;;;;;;;;;1.90;99.90;;;;;;5089594;28;19908;-62
2022/11/23 03:18:49;;;;;;;;;;;2.00;99.90;;;;;;5068242;28;19919;-60
2022/11/23 03:21:15;;;;;;;;;;;2.00;99.90;;;;;;5083111;28;19968;-62
2022/11/23 03:23:40;;;;;;;;;;;2.00;99.90;;;;;;5089519;28;19965;-61
2022/11/23 03:26:06;;;;;;;;;;;2.00;99.90;;;;;;5089435;28;20390;-60
2022/11/23 03:28:31;;;;;;;;;;;2.00;99.90;;;;;;5089286;28;19953;-60
2022/11/23 03:30:57;;;;;;;;;;;2.00;99.90;;;;;;5089298;28;19908;-62
2022/11/23 03:33:22;;;;;;;;;;;2.10;99.90;;;;;;5089259;28;19916;-62
2022/11/23 03:35:47;;;;;;;;;;;2.10;99.90;;;;;;5089286;28;19919;-60
2022/11/23 03:38:13;;;;;;;;;;;2.10;99.90;;;;;;5090087;28;19949;-60
2022/11/23 03:40:38;;;;;;;;;;;2.10;99.90;;;;;;5093699;28;20512;-61
2022/11/23 03:43:04;;;;;;;;;;;2.10;99.90;;;;;;5092356;28;19904;-62
2022/11/23 03:45:30;;;;;;;;;;;2.10;99.90;;;;;;5093577;28;19915;-62
2022/11/23 03:47:56;;;;;;;;;;;2.10;99.90;;;;;;5093451;28;20322;-61
2022/11/23 03:50:21;;;;;;;;;;;2.10;99.90;;;;;;5092932;28;19916;-60
2022/11/23 03:52:50;;;;;;;;;;;2.10;99.90;;;;;;5093027;28;19912;-59
2022/11/23 03:55:15;;;;;;;;;;;2.10;99.90;;;;;;5085255;28;19938;-60
2022/11/23 03:57:41;;;;;;;;;;;2.10;99.90;;;;;;5093060;28;19908;-61
2022/11/23 04:00:07;;;;;;;;;;;2.20;99.90;;;;;;5092919;28;20279;-62
2022/11/23 04:02:33;;;;;;;;;;;2.20;99.90;;;;;;5092875;28;19930;-61
2022/11/23 04:04:58;;;;;;;;;;;2.10;99.90;;;;;;5092893;28;19916;-62
2022/11/23 04:07:24;;;;;;;;;;;2.20;99.90;;;;;;5091812;28;19966;-60
2022/11/23 04:09:49;;;;;;;;;;;2.20;99.90;;;;;;5091799;28;19916;-61
2022/11/23 04:12:14;;;;;;;;;;;2.20;99.90;;;;;;5084161;28;19908;-62
2022/11/23 04:14:40;;;;;;;;;;;2.20;99.90;;;;;;5092432;28;19966;-62
2022/11/23 04:17:05;;;;;;;;;;;2.20;99.90;;;;;;5092429;28;19908;-62
2022/11/23 04:19:31;;;;;;;;;;;2.20;99.90;;;;;;5079640;28;19908;-62
2022/11/23 04:21:57;;;;;;;;;;;2.20;99.90;;;;;;5091871;28;19908;-63
2022/11/23 04:24:22;;;;;;;;;;;2.20;99.90;;;;;;5092487;28;19911;-61
2022/11/23 04:26:47;;;;;;;;;;;2.30;99.90;;;;;;5090320;28;19908;-62
2022/11/23 04:29:13;;;;;;;;;;;2.30;99.90;;;;;;5092292;28;19942;-61
2022/11/23 04:31:38;;;;;;;;;;;2.20;99.90;;;;;;5092431;28;19973;-62
2022/11/23 04:34:04;;;;;;;;;;;2.30;99.90;;;;;;5092121;28;19971;-62
2022/11/23 04:36:29;;;;;;;;;;;2.20;99.90;;;;;;5091238;28;19996;-60
2022/11/23 04:38:55;;;;;;;;;;;2.30;99.90;;;;;;5091942;28;19911;-61
2022/11/23 04:41:21;;;;;;;;;;;2.30;99.90;;;;;;5091876;28;19904;-58
2022/11/23 04:43:46;;;;;;;;;;;2.30;99.90;;;;;;5092137;28;20065;-61
2022/11/23 04:46:12;;;;;;;;;;;2.30;99.90;;;;;;5092152;28;20272;-62
2022/11/23 04:48:38;;;;;;;;;;;2.30;99.90;;;;;;5092145;28;19949;-61
2022/11/23 04:51:03;;;;;;;;;;;2.30;99.90;;;;;;5066262;28;19904;-61
2022/11/23 04:53:28;;;;;;;;;;;2.30;99.90;;;;;;5091803;28;20002;-61
2022/11/23 04:55:54;;;;;;;;;;;2.30;99.90;;;;;;5091922;28;19912;-61
2022/11/23 04:58:19;;;;;;;;;;;2.40;99.90;;;;;;5091449;28;20341;-61
2022/11/23 05:00:45;;;;;;;;;;;2.30;99.90;;;;;;5088035;28;19919;-60
2022/11/23 05:03:10;;;;;;;;;;;2.30;99.90;;;;;;5090853;28;19908;-60
2022/11/23 05:05:37;;;;;;;;;;;2.40;99.90;;;;;;5091561;28;19999;-62
2022/11/23 05:08:02;;;;;;;;;;;2.40;99.90;;;;;;5091082;28;20294;-61
2022/11/23 05:10:27;;;;;;;;;;;2.40;99.90;;;;;;5064113;28;20003;-61
2022/11/23 05:12:53;;;;;;;;;;;2.40;99.90;;;;;;5086785;28;20364;-60
2022/11/23 05:15:18;;;;;;;;;;;2.40;99.90;;;;;;5091258;28;19954;-60
2022/11/23 05:17:44;;;;;;;;;;;2.40;99.90;;;;;;5073137;28;19953;-60
2022/11/23 05:20:10;;;;;;;;;;;2.40;99.90;;;;;;5090949;28;19916;-61
2022/11/23 05:22:35;;;;;;;;;;;2.40;99.90;;;;;;5091601;28;20315;-61
2022/11/23 05:25:01;;;;;;;;;;;2.40;99.90;;;;;;5089735;28;20032;-61
2022/11/23 05:27:26;;;;;;;;;;;2.50;99.90;;;;;;5090078;28;19912;-62
2022/11/23 05:29:52;;;;;;;;;;;2.50;99.90;;;;;;5091464;28;19908;-61
2022/11/23 05:32:17;;;;;;;;;;;2.50;99.90;;;;;;5091045;28;20397;-61
2022/11/23 05:34:43;;;;;;;;;;;2.50;99.90;;;;;;5091095;28;19930;-61
2022/11/23 05:37:08;;;;;;;;;;;2.50;99.90;;;;;;5065302;28;20003;-60
2022/11/23 05:39:34;;;;;;;;;;;2.50;99.90;;;;;;5091002;28;20070;-61
2022/11/23 05:41:59;;;;;;;;;;;2.50;99.90;;;;;;5091133;28;19912;-61
2022/11/23 05:44:25;;;;;;;;;;;2.60;99.90;;;;;;5091445;28;19912;-60
2022/11/23 05:46:50;;;;;;;;;;;2.60;99.90;;;;;;5090899;28;19908;-61
2022/11/23 05:49:15;;;;;;;;;;;2.60;99.90;;;;;;5079145;28;19908;-59
2022/11/23 05:51:41;;;;;;;;;;;2.60;99.90;;;;;;5090573;28;19951;-61
2022/11/23 05:54:06;;;;;;;;;;;2.60;99.90;;;;;;5090687;28;20009;-61
2022/11/23 05:56:32;;;;;;;;;;;2.60;99.90;;;;;;5090798;28;19961;-61
2022/11/23 05:58:57;;;;;;;;;;;2.60;99.90;;;;;;5074813;28;19914;-59
2022/11/23 06:01:23;;;;;;;;;;;2.70;99.90;;;;;;5084704;28;20382;-60
2022/11/23 06:03:49;;;;;;;;;;;2.70;99.90;;;;;;5089856;28;19916;-59
2022/11/23 06:06:14;;;;;;;;;;;2.70;99.90;;;;;;5090849;28;20360;-62
2022/11/23 06:08:40;;;;;;;;;;;2.70;99.90;;;;;;5090240;28;19962;-62
2022/11/23 06:11:05;;;;;;;;;;;2.70;99.90;;;;;;5090518;28;19938;-60
2022/11/23 06:13:30;;;;;;;;;;;2.70;99.90;;;;;;5089974;28;19908;-60
2022/11/23 06:15:56;;;;;;;;;;;2.70;99.90;;;;;;5090794;28;19962;-61
2022/11/23 06:18:21;;;;;;;;;;;2.70;99.90;;;;;;5087960;28;19908;-60
2022/11/23 06:20:47;;;;;;;;;;;2.70;99.90;;;;;;5090883;28;19995;-60
2022/11/23 06:23:12;;;;;;;;;;;2.70;99.90;;;;;;5090054;28;19915;-61
2022/11/23 06:25:38;;;;;;;;;;;2.70;99.90;;;;;;5090428;28;19908;-62
2022/11/23 06:28:04;;;;;;;;;;;2.70;99.90;;;;;;5090566;28;19911;-61
2022/11/23 06:30:30;;;;;;;;;;;2.70;99.90;;;;;;5087565;28;19908;-60
2022/11/23 06:32:56;;;;;;;;;;;2.70;99.90;;;;;;5090106;28;19910;-62
2022/11/23 06:35:21;;;;;;;;;;;2.70;99.90;;;;;;5090618;28;19912;-61
2022/11/23 06:37:47;;;;;;;;;;;2.70;99.90;;;;;;5090302;28;20290;-61
2022/11/23 06:40:13;;;;;;;;;;;2.70;99.90;;;;;;5090515;28;19904;-61
2022/11/23 06:42:38;;;;;;;;;;;2.70;99.90;;;;;;5089581;28;19911;-61
2022/11/23 06:45:04;;;;;;;;;;;2.70;99.90;;;;;;5090210;28;19908;-61
2022/11/23 06:47:30;;;;;;;;;;;2.70;99.90;;;;;;5090089;28;20010;-61
2022/11/23 06:49:55;;;;;;;;;;;2.70;99.90;;;;;;5090080;28;19986;-61
2022/11/23 06:52:21;;;;;;;;;;;2.70;99.90;;;;;;5089945;28;19908;-61
2022/11/23 06:54:46;;;;;;;;;;;2.70;99.90;;;;;;5089897;28;19911;-61
2022/11/23 06:57:12;;;;;;;;;;;2.70;99.90;;;;;;5090139;28;19911;-61
2022/11/23 06:59:37;;;;;;;;;;;2.70;99.90;;;;;;5089606;28;19951;-61
2022/11/23 07:02:02;;;;;;;;;;;2.70;99.90;;;;;;5089486;28;19908;-60
2022/11/23 07:04:28;;;;;;;;;;;2.70;99.90;;;;;;5089562;28;20367;-60
2022/11/23 07:06:53;;;;;;;;;;;2.70;99.90;;;;;;5089457;28;20003;-61
2022/11/23 07:09:19;;;;;;;;;;;2.70;99.90;;;;;;5082455;28;20246;-61
2022/11/23 07:11:44;;;;;;;;;;;2.70;99.90;;;;;;5089497;28;19911;-61
2022/11/23 07:14:10;;;;;;;;;;;2.70;99.90;;;;;;5089700;28;20020;-59
2022/11/23 07:16:36;;;;;;;;;;;2.70;99.90;;;;;;5089375;28;19995;-59
2022/11/23 07:19:01;;;;;;;;;;;2.70;99.90;;;;;;5089072;28;19990;-60
2022/11/23 07:21:26;;;;;;;;;;;2.70;99.90;;;;;;5070365;28;19999;-60
2022/11/23 07:23:52;;;;;;;;;;;2.80;99.90;;;;;;5089394;28;19908;-61
2022/11/23 07:26:17;;;;;;;;;;;2.80;99.90;;;;;;5089535;28;19914;-60
2022/11/23 07:28:43;;;;;;;;;;;2.80;99.90;;;;;;5088678;28;19957;-60
2022/11/23 07:31:08;;;;;;;;;;;2.80;99.90;;;;;;5088589;28;20003;-61
2022/11/23 07:33:34;;;;;;;;;;;2.80;99.90;;;;;;5089595;28;20311;-61
2022/11/23 07:36:01;;;;;;;;;;;2.90;99.90;;;;;;5089691;28;20306;-60
2022/11/23 07:38:26;;;;;;;;;;;2.90;99.90;;;;;;5082442;28;19982;-59
2022/11/23 07:40:52;;;;;;;;;;;2.90;99.90;;;;;;5089001;28;20398;-58
2022/11/23 07:43:17;;;;;;;;;;;2.90;99.90;;;;;;5084868;28;19908;-61
2022/11/23 07:45:43;;;;;;;;;;;2.90;99.90;;;;;;5072005;28;19904;-61
2022/11/23 07:48:09;;;;;;;;;;;2.90;99.90;;;;;;5088988;28;19908;-61
2022/11/23 07:50:35;;;;;;;;;;;2.90;99.90;;;;;;5089939;28;19982;-61
2022/11/23 07:53:04;;;;;;;;;;;3.00;99.90;;;;;;5089256;28;19915;-60
2022/11/23 07:55:30;;;;;;;;;;;3.00;99.90;;;;;;5089023;28;19912;-60
2022/11/23 07:57:56;;;;;;;;;;;3.00;99.90;;;;;;5089346;28;19931;-58
2022/11/23 08:00:22;;;;;;;;;;;3.00;99.90;;;;;;5088783;28;19907;-60
2022/11/23 08:02:47;;;;;;;;;;;3.10;99.90;;;;;;5089025;28;19911;-58
2022/11/23 08:05:13;;;;;;;;;;;3.10;99.90;;;;;;5088888;28;19908;-57
2022/11/23 08:07:39;;;;;;;;;;;3.10;99.90;;;;;;5089738;28;20417;-60
2022/11/23 08:10:04;;;;;;;;;;;3.20;99.90;;;;;;5088151;28;20376;-59
2022/11/23 08:12:30;;;;;;;;;;;3.20;99.90;;;;;;5089170;28;19908;-59
2022/11/23 08:14:55;;;;;;;;;;;3.20;99.90;;;;;;5088858;28;19915;-62
2022/11/23 08:17:21;;;;;;;;;;;3.30;99.90;;;;;;5088720;28;20064;-58
2022/11/23 08:19:47;;;;;;;;;;;3.30;99.90;;;;;;5067020;28;19962;-59
2022/11/23 08:22:12;;;;;;;;;;;3.40;99.90;;;;;;5087931;28;19912;-61
2022/11/23 08:24:38;;;;;;;;;;;3.40;99.90;;;;;;5088719;28;19995;-61
2022/11/23 08:27:03;;;;;;;;;;;3.40;99.90;;;;;;5091910;28;19908;-61
2022/11/23 08:29:29;;;;;;;;;;;3.50;99.90;;;;;;5091337;28;19923;-59
2022/11/23 08:31:54;;;;;;;;;;;3.50;99.90;;;;;;5091257;28;19912;-60
2022/11/23 08:34:20;;;;;;;;;;;3.50;99.90;;;;;;5091995;28;19918;-60
2022/11/23 08:36:46;;;;;;;;;;;3.60;99.90;;;;;;5069892;28;19908;-59
2022/11/23 08:39:13;;;;;;;;;;;3.60;99.90;;;;;;5091435;28;19923;-59
2022/11/23 08:41:39;;;;;;;;;;;3.60;99.90;;;;;;5091933;28;19904;-60
2022/11/23 08:44:04;;;;;;;;;;;3.70;99.90;;;;;;5092005;28;19915;-60
2022/11/23 08:46:30;;;;;;;;;;;3.70;99.90;;;;;;5091291;28;19919;-60
2022/11/23 08:48:55;;;;;;;;;;;3.70;99.90;;;;;;5088842;28;19908;-59
2022/11/23 08:51:24;;;;;;;;;;;3.80;99.90;;;;;;5091565;28;19930;-61
2022/11/23 08:53:49;;;;;;;;;;;3.80;99.90;;;;;;5091316;28;19907;-60
2022/11/23 08:56:15;;;;;;;;;;;3.80;99.90;;;;;;5092284;28;19983;-60
2022/11/23 08:58:40;;;;;;;;;;;3.90;99.90;;;;;;5092066;28;19957;-59
2022/11/23 09:01:07;;;;;;;;;;;3.90;99.90;;;;;;5091667;28;19911;-61
2022/11/23 09:03:32;;;;;;;;;;;4.00;99.90;;;;;;5091032;28;20348;-60
2022/11/23 09:05:58;;;;;;;;;;;4.00;99.90;;;;;;5092066;28;19911;-60
2022/11/23 09:08:24;;;;;;;;;;;4.00;99.90;;;;;;5091740;28;19908;-58
2022/11/23 09:10:49;;;;;;;;;;;4.10;99.90;;;;;;5091663;28;19916;-61
2022/11/23 09:13:14;;;;;;;;;;;4.10;99.90;;;;;;5091313;28;19904;-59
2022/11/23 09:15:40;;;;;;;;;;;4.20;99.90;;;;;;5091537;28;20363;-59
2022/11/23 09:18:05;;;;;;;;;;;4.20;99.90;;;;;;5091903;28;20283;-60
2022/11/23 09:20:31;;;;;;;;;;;4.20;99.90;;;;;;5091726;28;19904;-60
2022/11/23 09:22:56;;;;;;;;;;;4.30;99.90;;;;;;5073116;28;19911;-60
2022/11/23 09:25:22;;;;;;;;;;;4.30;99.90;;;;;;5091694;28;19908;-60
2022/11/23 09:27:48;;;;;;;;;;;4.30;99.90;;;;;;5091762;28;20474;-59
2022/11/23 09:30:13;;;;;;;;;;;4.30;99.90;;;;;;5081525;28;19904;-60
2022/11/23 09:32:39;;;;;;;;;;;4.40;99.90;;;;;;5091223;28;19904;-60
2022/11/23 09:35:05;;;;;;;;;;;4.40;99.90;;;;;;5091662;28;19996;-60
2022/11/23 09:37:30;;;;;;;;;;;4.40;99.90;;;;;;5090767;28;19978;-60
2022/11/23 09:39:56;;;;;;;;;;;4.40;99.90;;;;;;5090935;28;19908;-61
2022/11/23 09:42:27;;;;;;;;;;;4.50;99.90;;;;;;5091099;28;20003;-59
2022/11/23 09:45:05;;;;;;;;;;;4.50;99.90;;;;;;5090475;28;20192;-59
2022/11/23 09:47:30;;;;;;;;;;;4.60;99.90;;;;;;5091063;28;19915;-61
2022/11/23 09:50:05;;;;;;;;;;;4.60;99.90;;;;;;5087962;28;20275;-61
2022/11/23 09:52:31;;;;;;;;;;;4.70;99.90;;;;;;5090966;28;20069;-60
2022/11/23 09:54:59;;;;;;;;;;;4.80;99.90;;;;;;5090514;28;20010;-59
2022/11/23 09:57:27;;;;;;;;;;;4.80;99.90;;;;;;5091269;28;20280;-61
2022/11/23 09:59:56;;;;;;;;;;;4.90;99.90;;;;;;5090596;28;19915;-59
2022/11/23 10:02:23;;;;;;;;;;;4.90;99.90;;;;;;5091485;28;20275;-61
2022/11/23 10:04:50;;;;;;;;;;;5.00;99.90;;;;;;5068516;28;19912;-59
2022/11/23 10:07:15;;;;;;;;;;;5.00;99.90;;;;;;5069701;28;20314;-60
2022/11/23 10:09:47;;;;;;;;;;;5.10;99.90;;;;;;5090596;28;19919;-59
2022/11/23 10:12:18;;;;;;;;;;;5.20;99.90;;;;;;5090729;28;19908;-59
2022/11/23 10:15:02;;;;;;;;;;;5.10;99.90;;;;;;5090618;28;19995;-61
2022/11/23 10:17:36;;;;;;;;;;;5.20;99.90;;;;;;5084266;28;19915;-60
2022/11/23 10:20:20;;;;;;;;;;;5.20;99.90;;;;;;5074525;28;19904;-62
2022/11/23 10:23:01;;;;;;;;;;;5.30;99.90;;;;;;5090462;28;20272;-59
2022/11/23 10:25:38;;;;;;;;;;;5.40;99.90;;;;;;5087308;28;19927;-61
2022/11/23 10:28:18;;;;;;;;;;;5.40;99.90;;;;;;5086775;28;19912;-61
2022/11/23 10:30:50;;;;;;;;;;;5.40;99.90;;;;;;5090422;28;20352;-60
2022/11/23 10:33:30;;;;;;;;;;;5.50;99.90;;;;;;5082014;28;19961;-59
2022/11/23 10:35:55;;;;;;;;;;;5.50;99.90;;;;;;5090564;28;19912;-57
2022/11/23 10:38:24;;;;;;;;;;;5.50;99.90;;;;;;5090573;28;19915;-57
2022/11/23 10:40:49;;;;;;;;;;;5.50;99.90;;;;;;5090196;28;19908;-58
2022/11/23 10:43:17;;;;;;;;;;;5.50;99.90;;;;;;5089636;28;19912;-59
2022/11/23 10:45:42;;;;;;;;;;;5.60;99.90;;;;;;5090393;28;20010;-61
2022/11/23 10:48:08;;;;;;;;;;;5.60;99.90;;;;;;5089490;28;19939;-60
2022/11/23 10:50:39;;;;;;;;;;;5.60;99.90;;;;;;5090686;28;19904;-59
2022/11/23 10:53:04;;;;;;;;;;;5.70;99.90;;;;;;5068492;28;20493;-60
2022/11/23 10:55:44;;;;;;;;;;;5.70;99.90;;;;;;5090082;28;19908;-61
2022/11/23 10:58:23;;;;;;;;;;;5.70;99.90;;;;;;5089603;28;19916;-59
2022/11/23 11:00:57;;;;;;;;;;;5.80;99.90;;;;;;5067163;28;19958;-61
2022/11/23 11:03:22;;;;;;;;;;;5.90;99.90;;;;;;5086169;28;19908;-59
2022/11/23 11:05:49;;;;;;;;;;;5.90;99.90;;;;;;5089923;28;19915;-60
2022/11/23 11:08:19;;;;;;;;;;;6.00;99.90;;;;;;5089866;28;20215;-59
2022/11/23 11:10:48;;;;;;;;;;;6.00;99.90;;;;;;5089819;28;20418;-58
2022/11/23 11:13:32;;;;;;;;;;;6.00;99.90;;;;;;5089218;28;19908;-59
2022/11/23 11:16:00;;;;;;;;;;;6.00;99.90;;;;;;5089707;28;19912;-58
2022/11/23 11:18:27;;;;;;;;;;;6.00;99.90;;;;;;5090111;28;19904;-61
2022/11/23 11:21:00;;;;;;;;;;;6.10;99.90;;;;;;5089576;28;20199;-60
2022/11/23 11:23:27;;;;;;;;;;;6.10;99.90;;;;;;5088957;28;19908;-59
2022/11/23 11:26:01;;;;;;;;;;;6.10;99.90;;;;;;5089253;28;19927;-60
2022/11/23 11:28:33;;;;;;;;;;;6.20;99.90;;;;;;5089531;28;19991;-59
2022/11/23 11:31:17;;;;;;;;;;;6.20;99.90;;;;;;5087203;28;19903;-58
2022/11/23 11:33:59;;;;;;;;;;;6.20;99.90;;;;;;5085412;28;19904;-60
2022/11/23 11:36:27;;;;;;;;;;;6.30;99.90;;;;;;5084383;28;19908;-60
2022/11/23 11:38:54;;;;;;;;;;;6.30;99.90;;;;;;5089086;28;20003;-60
2022/11/23 11:41:24;;;;;;;;;;;6.30;99.90;;;;;;5087989;28;19908;-60
2022/11/23 11:43:54;;;;;;;;;;;6.30;99.90;;;;;;5089229;28;20025;-59
2022/11/23 11:46:28;;;;;;;;;;;6.40;99.90;;;;;;5089432;28;19951;-60
2022/11/23 11:48:56;;;;;;;;;;;6.40;99.90;;;;;;5089309;28;20276;-61
2022/11/23 11:51:25;;;;;;;;;;;6.40;99.90;;;;;;5088986;28;19999;-58
2022/11/23 11:53:55;;;;;;;;;;;6.40;99.90;;;;;;5089638;28;19912;-60
2022/11/23 11:56:33;;;;;;;;;;;6.40;99.90;;;;;;5086777;28;19904;-60
2022/11/23 11:59:08;;;;;;;;;;;6.50;99.90;;;;;;5089579;28;19908;-60
2022/11/23 12:01:40;;;;;;;;;;;6.50;99.90;;;;;;5069289;28;20042;-60
2022/11/23 12:04:11;;;;;;;;;;;6.60;99.90;;;;;;5093293;28;19951;-59
2022/11/23 12:06:39;;;;;;;;;;;6.60;99.90;;;;;;5093206;28;20260;-58
2022/11/23 12:09:25;;;;;;;;;;;6.60;99.90;;;;;;5092774;28;19914;-60
2022/11/23 12:11:51;;;;;;;;;;;6.60;99.90;;;;;;5088670;28;20241;-60
2022/11/23 12:14:16;;;;;;;;;;;6.60;99.90;;;;;;5105400;22;19951;-69
2022/11/23 12:16:49;;;;;;;;;;;6.70;99.90;;;;;;5070806;28;20394;-69
2022/11/23 12:19:19;;;;;;;;;;;6.70;99.90;;;;;;5059989;28;19936;-69
2022/11/23 12:22:03;;;;;;;;;;;6.70;99.90;;;;;;5067818;28;19919;-69
2022/11/23 12:24:48;;;;;;;;;;;6.80;99.90;;;;;;5065643;28;20085;-68
2022/11/23 12:27:16;;;;;;;;;;;6.80;99.90;;;;;;5072380;28;20261;-68
2022/11/23 12:29:41;;;;;;;;;;;6.90;99.90;;;;;;5072053;28;19904;-68
2022/11/23 12:32:13;;;;;;;;;;;6.90;99.90;;;;;;5071914;28;19912;-68
2022/11/23 12:34:56;;;;;;;;;;;6.80;99.90;;;;;;5071483;28;19920;-68
2022/11/23 12:37:29;;;;;;;;;;;6.90;99.90;;;;;;5059207;28;19916;-68
2022/11/23 12:40:04;;;;;;;;;;;6.80;99.90;;;;;;5071648;28;19905;-69
2022/11/23 12:42:56;;;;;;;;;;;6.70;99.90;;;;;;5059365;28;19908;-68
2022/11/23 12:45:33;;;;;;;;;;;6.70;99.90;;;;;;5048744;28;19916;-68
2022/11/23 12:48:07;;;;;;;;;;;6.70;99.90;;;;;;5071782;28;19916;-67
2022/11/23 12:50:37;;;;;;;;;;;6.70;99.90;;;;;;5071820;28;19912;-67
2022/11/23 12:53:09;;;;;;;;;;;6.70;99.90;;;;;;5071197;28;20415;-68
2022/11/23 12:55:38;;;;;;;;;;;6.80;99.90;;;;;;5071463;28;20078;-68
2022/11/23 12:58:24;;;;;;;;;;;6.80;99.90;;;;;;5050960;28;19910;-67
2022/11/23 13:00:53;;;;;;;;;;;6.80;99.90;;;;;;5070588;28;20032;-68
2022/11/23 13:03:45;;;;;;;;;;;6.90;99.90;;;;;;5069848;28;20089;-68
2022/11/23 13:06:30;;;;;;;;;;;6.90;99.90;;;;;;5070959;28;19954;-68
2022/11/23 13:09:01;;;;;;;;;;;6.90;99.90;;;;;;5068952;28;19904;-68
2022/11/23 13:11:58;;;;;;;;;;;6.90;99.90;;;;;;5070813;28;19904;-68
2022/11/23 13:14:42;;;;;;;;;;;6.90;99.90;;;;;;5017705;28;20007;-68
2022/11/23 13:17:27;;;;;;;;;;;6.90;99.90;;;;;;5070765;28;19909;-69
2022/11/23 13:19:59;;;;;;;;;;;6.90;99.90;;;;;;5071080;28;20455;-68
2022/11/23 13:22:25;;;;;;;;;;;6.90;99.90;;;;;;5070870;28;19911;-68
2022/11/23 13:25:14;;;;;;;;;;;6.90;99.90;;;;;;5060311;28;20307;-69
2022/11/23 13:27:42;;;;;;;;;;;6.90;99.90;;;;;;5055363;28;19995;-68
2022/11/23 13:30:20;;;;;;;;;;;6.90;99.90;;;;;;5071215;28;19909;-68
2022/11/23 13:32:52;;;;;;;;;;;6.90;99.90;;;;;;5044678;28;20000;-68
2022/11/23 13:35:17;;;;;;;;;;;6.90;99.90;;;;;;5051398;28;19950;-68
2022/11/23 13:38:06;;;;;;;;;;;6.90;99.90;;;;;;5070877;28;19908;-68
2022/11/23 13:40:31;;;;;;;;;;;7.00;99.90;;;;;;5065626;28;20119;-68
2022/11/23 13:43:01;;;;;;;;;;;7.00;99.90;;;;;;5071093;28;19951;-68
2022/11/23 13:45:29;;;;;;;;;;;7.00;99.90;;;;;;5071253;28;19912;-68
2022/11/23 13:48:03;;;;;;;;;;;7.00;99.90;;;;;;5070780;28;19912;-68
2022/11/23 13:50:29;;;;;;;;;;;7.00;99.90;;;;;;5070779;28;19998;-69
2022/11/23 13:52:55;;;;;;;;;;;7.00;99.90;;;;;;5070056;28;19996;-68
2022/11/23 13:55:26;;;;;;;;;;;7.10;99.90;;;;;;5070742;28;20387;-68
2022/11/23 13:58:09;;;;;;;;;;;7.00;99.90;;;;;;5070191;28;19904;-68
2022/11/23 14:00:45;;;;;;;;;;;7.10;99.90;;;;;;5066138;28;20008;-68
2022/11/23 14:03:30;;;;;;;;;;;7.10;99.90;;;;;;5054565;28;19904;-68
2022/11/23 14:05:58;;;;;;;;;;;7.10;99.90;;;;;;5070652;28;20368;-68
2022/11/23 14:08:23;;;;;;;;;;;7.00;99.90;;;;;;5070088;28;19912;-68
2022/11/23 14:10:49;;;;;;;;;;;7.10;99.90;;;;;;5065942;28;19908;-68
2022/11/23 14:13:18;;;;;;;;;;;7.10;99.90;;;;;;5044158;28;19908;-68
2022/11/23 14:15:45;;;;;;;;;;;7.10;99.90;;;;;;5060778;28;20334;-69
2022/11/23 14:18:29;;;;;;;;;;;7.10;99.90;;;;;;5070260;28;20364;-68
2022/11/23 14:21:00;;;;;;;;;;;7.10;99.90;;;;;;5055764;28;20419;-67
2022/11/23 14:23:35;;;;;;;;;;;7.10;99.90;;;;;;5068411;28;19920;-68
2022/11/23 14:26:12;;;;;;;;;;;7.10;99.90;;;;;;5069210;28;19916;-69
2022/11/23 14:28:58;;;;;;;;;;;7.10;99.90;;;;;;5069758;28;19940;-68
2022/11/23 14:31:31;;;;;;;;;;;7.10;99.90;;;;;;5063025;28;19962;-68
2022/11/23 14:34:00;;;;;;;;;;;7.10;99.90;;;;;;5059935;28;19984;-69
2022/11/23 14:36:34;;;;;;;;;;;7.10;99.90;;;;;;5070304;28;19904;-68